sensor_id;sensor_type;location;lat;lon;timestamp;P1;durP1;ratioP1;P2;durP2;ratioP2
53751;SDS011;41095;53.090;6.692;2022-11-15T00:01:52;19.50;;;14.23;;
53751;SDS011;41095;53.090;6.692;2022-11-15T00:04:18;26.17;;;14.65;;
53751;SDS011;41095;53.090;6.692;2022-11-15T00:06:43;23.40;;;16.67;;
53751;SDS011;41095;53.090;6.692;2022-11-15T00:09:09;21.77;;;15.77;;
53751;SDS011;41095;53.090;6.692;2022-11-15T00:11:35;18.05;;;13.60;;
53751;SDS011;41095;53.090;6.692;2022-11-15T00:14:00;21.55;;;14.38;;
53751;SDS011;41095;53.090;6.692;2022-11-15T00:16:27;20.90;;;14.57;;
53751;SDS011;41095;53.090;6.692;2022-11-15T00:18:53;24.13;;;16.65;;
53751;SDS011;41095;53.090;6.692;2022-11-15T00:21:19;23.20;;;15.48;;
53751;SDS011;41095;53.090;6.692;2022-11-15T00:23:44;23.20;;;15.57;;
53751;SDS011;41095;53.090;6.692;2022-11-15T00:26:14;22.13;;;16.85;;
53751;SDS011;41095;53.090;6.692;2022-11-15T00:28:40;24.60;;;15.90;;
53751;SDS011;41095;53.090;6.692;2022-11-15T00:31:08;19.13;;;14.60;;
53751;SDS011;41095;53.090;6.692;2022-11-15T00:33:36;19.45;;;15.55;;
53751;SDS011;41095;53.090;6.692;2022-11-15T00:36:03;20.95;;;15.63;;
53751;SDS011;41095;53.090;6.692;2022-11-15T00:38:33;25.40;;;15.55;;
53751;SDS011;41095;53.090;6.692;2022-11-15T00:40:59;21.73;;;16.35;;
53751;SDS011;41095;53.090;6.692;2022-11-15T00:43:25;22.40;;;14.68;;
53751;SDS011;41095;53.090;6.692;2022-11-15T00:45:51;21.77;;;16.02;;
53751;SDS011;41095;53.090;6.692;2022-11-15T00:48:17;18.48;;;15.38;;
53751;SDS011;41095;53.090;6.692;2022-11-15T00:50:43;19.02;;;14.85;;
53751;SDS011;41095;53.090;6.692;2022-11-15T00:53:09;20.55;;;14.48;;
53751;SDS011;41095;53.090;6.692;2022-11-15T00:55:34;18.88;;;14.85;;
53751;SDS011;41095;53.090;6.692;2022-11-15T00:58:00;19.75;;;14.18;;
53751;SDS011;41095;53.090;6.692;2022-11-15T01:00:26;22.75;;;15.68;;
53751;SDS011;41095;53.090;6.692;2022-11-15T01:02:52;18.42;;;13.70;;
53751;SDS011;41095;53.090;6.692;2022-11-15T01:05:18;23.45;;;15.55;;
53751;SDS011;41095;53.090;6.692;2022-11-15T01:07:44;19.75;;;14.23;;
53751;SDS011;41095;53.090;6.692;2022-11-15T01:10:09;19.90;;;13.85;;
53751;SDS011;41095;53.090;6.692;2022-11-15T01:12:35;18.40;;;14.45;;
53751;SDS011;41095;53.090;6.692;2022-11-15T01:15:01;19.85;;;13.95;;
53751;SDS011;41095;53.090;6.692;2022-11-15T01:17:27;22.10;;;15.73;;
53751;SDS011;41095;53.090;6.692;2022-11-15T01:19:53;22.10;;;16.50;;
53751;SDS011;41095;53.090;6.692;2022-11-15T01:22:18;23.42;;;16.70;;
53751;SDS011;41095;53.090;6.692;2022-11-15T01:24:44;24.30;;;15.85;;
53751;SDS011;41095;53.090;6.692;2022-11-15T01:27:10;23.00;;;15.63;;
53751;SDS011;41095;53.090;6.692;2022-11-15T01:29:35;21.52;;;15.10;;
53751;SDS011;41095;53.090;6.692;2022-11-15T01:32:01;24.52;;;16.63;;
53751;SDS011;41095;53.090;6.692;2022-11-15T01:34:27;20.60;;;15.82;;
53751;SDS011;41095;53.090;6.692;2022-11-15T01:36:53;23.80;;;14.13;;
53751;SDS011;41095;53.090;6.692;2022-11-15T01:39:19;19.90;;;15.50;;
53751;SDS011;41095;53.090;6.692;2022-11-15T01:41:44;24.10;;;16.60;;
53751;SDS011;41095;53.090;6.692;2022-11-15T01:47:08;20.52;;;14.65;;
53751;SDS011;41095;53.090;6.692;2022-11-15T01:50:10;28.15;;;15.82;;
53751;SDS011;41095;53.090;6.692;2022-11-15T01:52:39;24.67;;;15.00;;
53751;SDS011;41095;53.090;6.692;2022-11-15T01:55:18;21.00;;;14.05;;
53751;SDS011;41095;53.090;6.692;2022-11-15T01:57:47;23.10;;;15.93;;
53751;SDS011;41095;53.090;6.692;2022-11-15T02:00:17;20.50;;;14.32;;
53751;SDS011;41095;53.090;6.692;2022-11-15T02:02:43;22.45;;;15.18;;
53751;SDS011;41095;53.090;6.692;2022-11-15T02:05:09;19.40;;;14.55;;
53751;SDS011;41095;53.090;6.692;2022-11-15T02:07:35;25.75;;;15.90;;
53751;SDS011;41095;53.090;6.692;2022-11-15T02:10:03;19.50;;;13.48;;
53751;SDS011;41095;53.090;6.692;2022-11-15T02:12:43;19.98;;;15.02;;
53751;SDS011;41095;53.090;6.692;2022-11-15T02:15:09;27.08;;;15.65;;
53751;SDS011;41095;53.090;6.692;2022-11-15T02:21:30;23.13;;;14.63;;
53751;SDS011;41095;53.090;6.692;2022-11-15T02:26:34;25.63;;;16.15;;
53751;SDS011;41095;53.090;6.692;2022-11-15T02:37:51;20.73;;;14.95;;
53751;SDS011;41095;53.090;6.692;2022-11-15T02:43:27;26.30;;;15.07;;
53751;SDS011;41095;53.090;6.692;2022-11-15T02:46:35;20.77;;;12.18;;
53751;SDS011;41095;53.090;6.692;2022-11-15T02:49:47;20.85;;;14.48;;
53751;SDS011;41095;53.090;6.692;2022-11-15T02:52:19;21.05;;;13.75;;
53751;SDS011;41095;53.090;6.692;2022-11-15T02:54:57;19.13;;;13.30;;
53751;SDS011;41095;53.090;6.692;2022-11-15T02:57:49;23.20;;;15.48;;
53751;SDS011;41095;53.090;6.692;2022-11-15T03:00:17;21.23;;;13.27;;
53751;SDS011;41095;53.090;6.692;2022-11-15T03:13:24;24.33;;;15.45;;
53751;SDS011;41095;53.090;6.692;2022-11-15T03:16:03;21.58;;;14.18;;
53751;SDS011;41095;53.090;6.692;2022-11-15T03:18:45;25.52;;;15.07;;
53751;SDS011;41095;53.090;6.692;2022-11-15T03:21:20;22.10;;;12.70;;
53751;SDS011;41095;53.090;6.692;2022-11-15T03:23:47;26.70;;;14.02;;
53751;SDS011;41095;53.090;6.692;2022-11-15T03:26:15;18.00;;;13.23;;
53751;SDS011;41095;53.090;6.692;2022-11-15T03:28:53;21.80;;;14.55;;
53751;SDS011;41095;53.090;6.692;2022-11-15T03:31:26;23.40;;;13.85;;
53751;SDS011;41095;53.090;6.692;2022-11-15T03:34:12;21.73;;;13.43;;
53751;SDS011;41095;53.090;6.692;2022-11-15T03:36:43;26.60;;;14.80;;
53751;SDS011;41095;53.090;6.692;2022-11-15T03:39:10;22.15;;;15.63;;
53751;SDS011;41095;53.090;6.692;2022-11-15T03:41:49;26.38;;;15.85;;
53751;SDS011;41095;53.090;6.692;2022-11-15T03:47:32;26.15;;;16.30;;
53751;SDS011;41095;53.090;6.692;2022-11-15T03:50:07;21.52;;;15.52;;
53751;SDS011;41095;53.090;6.692;2022-11-15T03:52:38;30.92;;;18.40;;
53751;SDS011;41095;53.090;6.692;2022-11-15T03:55:07;27.88;;;16.92;;
53751;SDS011;41095;53.090;6.692;2022-11-15T03:57:36;28.75;;;16.80;;
53751;SDS011;41095;53.090;6.692;2022-11-15T04:00:05;26.20;;;16.20;;
53751;SDS011;41095;53.090;6.692;2022-11-15T04:02:31;28.52;;;16.60;;
53751;SDS011;41095;53.090;6.692;2022-11-15T04:04:57;30.60;;;16.63;;
53751;SDS011;41095;53.090;6.692;2022-11-15T04:07:23;31.60;;;17.85;;
53751;SDS011;41095;53.090;6.692;2022-11-15T04:09:48;33.10;;;20.05;;
53751;SDS011;41095;53.090;6.692;2022-11-15T04:15:08;37.65;;;19.58;;
53751;SDS011;41095;53.090;6.692;2022-11-15T04:17:46;28.27;;;19.00;;
53751;SDS011;41095;53.090;6.692;2022-11-15T04:20:20;36.95;;;19.23;;
53751;SDS011;41095;53.090;6.692;2022-11-15T04:23:21;36.38;;;19.25;;
53751;SDS011;41095;53.090;6.692;2022-11-15T04:26:07;32.33;;;19.63;;
53751;SDS011;41095;53.090;6.692;2022-11-15T04:28:36;29.52;;;17.10;;
53751;SDS011;41095;53.090;6.692;2022-11-15T04:31:25;30.77;;;19.00;;
53751;SDS011;41095;53.090;6.692;2022-11-15T04:33:51;33.65;;;20.10;;
53751;SDS011;41095;53.090;6.692;2022-11-15T04:36:17;29.45;;;19.00;;
53751;SDS011;41095;53.090;6.692;2022-11-15T04:39:01;30.25;;;19.33;;
53751;SDS011;41095;53.090;6.692;2022-11-15T04:41:27;33.42;;;19.77;;
53751;SDS011;41095;53.090;6.692;2022-11-15T04:43:54;27.55;;;18.30;;
53751;SDS011;41095;53.090;6.692;2022-11-15T04:46:20;32.22;;;18.40;;
53751;SDS011;41095;53.090;6.692;2022-11-15T04:48:46;33.13;;;19.13;;
53751;SDS011;41095;53.090;6.692;2022-11-15T04:51:12;30.20;;;19.15;;
53751;SDS011;41095;53.090;6.692;2022-11-15T04:53:37;35.90;;;19.45;;
53751;SDS011;41095;53.090;6.692;2022-11-15T04:56:03;32.30;;;19.48;;
53751;SDS011;41095;53.090;6.692;2022-11-15T04:58:29;31.50;;;20.55;;
53751;SDS011;41095;53.090;6.692;2022-11-15T05:00:55;34.58;;;19.83;;
53751;SDS011;41095;53.090;6.692;2022-11-15T05:03:20;30.13;;;20.42;;
53751;SDS011;41095;53.090;6.692;2022-11-15T05:06:05;36.55;;;21.08;;
53751;SDS011;41095;53.090;6.692;2022-11-15T05:08:31;40.35;;;24.30;;
53751;SDS011;41095;53.090;6.692;2022-11-15T05:10:57;37.85;;;22.42;;
53751;SDS011;41095;53.090;6.692;2022-11-15T05:13:22;31.15;;;21.77;;
53751;SDS011;41095;53.090;6.692;2022-11-15T05:15:48;40.05;;;21.95;;
53751;SDS011;41095;53.090;6.692;2022-11-15T05:18:14;35.15;;;22.45;;
53751;SDS011;41095;53.090;6.692;2022-11-15T05:20:39;38.85;;;20.45;;
53751;SDS011;41095;53.090;6.692;2022-11-15T05:23:05;36.60;;;23.70;;
53751;SDS011;41095;53.090;6.692;2022-11-15T05:25:31;50.10;;;24.75;;
53751;SDS011;41095;53.090;6.692;2022-11-15T05:27:56;43.78;;;24.13;;
53751;SDS011;41095;53.090;6.692;2022-11-15T05:30:22;46.42;;;24.20;;
53751;SDS011;41095;53.090;6.692;2022-11-15T05:32:48;36.92;;;23.85;;
53751;SDS011;41095;53.090;6.692;2022-11-15T05:35:29;41.05;;;25.50;;
53751;SDS011;41095;53.090;6.692;2022-11-15T05:37:56;42.53;;;25.80;;
53751;SDS011;41095;53.090;6.692;2022-11-15T05:40:22;45.13;;;25.13;;
53751;SDS011;41095;53.090;6.692;2022-11-15T05:42:49;41.95;;;23.83;;
53751;SDS011;41095;53.090;6.692;2022-11-15T05:45:15;44.28;;;24.38;;
53751;SDS011;41095;53.090;6.692;2022-11-15T05:47:41;40.75;;;23.27;;
53751;SDS011;41095;53.090;6.692;2022-11-15T05:50:07;43.30;;;22.90;;
53751;SDS011;41095;53.090;6.692;2022-11-15T05:52:37;42.83;;;23.17;;
53751;SDS011;41095;53.090;6.692;2022-11-15T05:55:04;36.35;;;23.77;;
53751;SDS011;41095;53.090;6.692;2022-11-15T05:57:31;37.78;;;23.70;;
53751;SDS011;41095;53.090;6.692;2022-11-15T05:59:57;42.15;;;25.42;;
53751;SDS011;41095;53.090;6.692;2022-11-15T06:02:23;44.42;;;24.85;;
53751;SDS011;41095;53.090;6.692;2022-11-15T06:04:49;36.80;;;22.75;;
53751;SDS011;41095;53.090;6.692;2022-11-15T06:07:14;36.72;;;22.42;;
53751;SDS011;41095;53.090;6.692;2022-11-15T06:09:40;38.17;;;22.98;;
53751;SDS011;41095;53.090;6.692;2022-11-15T06:12:06;46.15;;;23.83;;
53751;SDS011;41095;53.090;6.692;2022-11-15T06:14:31;35.38;;;21.45;;
53751;SDS011;41095;53.090;6.692;2022-11-15T06:16:57;37.45;;;22.90;;
53751;SDS011;41095;53.090;6.692;2022-11-15T06:19:23;36.92;;;22.13;;
53751;SDS011;41095;53.090;6.692;2022-11-15T06:21:48;39.95;;;24.27;;
53751;SDS011;41095;53.090;6.692;2022-11-15T06:24:14;36.80;;;21.90;;
53751;SDS011;41095;53.090;6.692;2022-11-15T06:26:40;40.25;;;23.92;;
53751;SDS011;41095;53.090;6.692;2022-11-15T06:29:05;34.10;;;22.80;;
53751;SDS011;41095;53.090;6.692;2022-11-15T06:31:31;36.80;;;21.83;;
53751;SDS011;41095;53.090;6.692;2022-11-15T06:33:58;38.15;;;22.90;;
53751;SDS011;41095;53.090;6.692;2022-11-15T06:36:23;37.92;;;23.98;;
53751;SDS011;41095;53.090;6.692;2022-11-15T06:38:49;40.28;;;23.80;;
53751;SDS011;41095;53.090;6.692;2022-11-15T06:41:15;35.20;;;24.00;;
53751;SDS011;41095;53.090;6.692;2022-11-15T06:43:42;36.42;;;22.88;;
53751;SDS011;41095;53.090;6.692;2022-11-15T06:46:08;33.20;;;20.92;;
53751;SDS011;41095;53.090;6.692;2022-11-15T06:48:34;36.65;;;23.25;;
53751;SDS011;41095;53.090;6.692;2022-11-15T06:51:01;37.55;;;21.48;;
53751;SDS011;41095;53.090;6.692;2022-11-15T06:53:29;33.42;;;21.88;;
53751;SDS011;41095;53.090;6.692;2022-11-15T06:55:59;38.67;;;22.38;;
53751;SDS011;41095;53.090;6.692;2022-11-15T06:58:26;36.78;;;22.95;;
53751;SDS011;41095;53.090;6.692;2022-11-15T07:00:52;37.55;;;21.52;;
53751;SDS011;41095;53.090;6.692;2022-11-15T07:03:17;32.63;;;21.27;;
53751;SDS011;41095;53.090;6.692;2022-11-15T07:05:50;32.28;;;20.50;;
53751;SDS011;41095;53.090;6.692;2022-11-15T07:08:20;33.65;;;20.98;;
53751;SDS011;41095;53.090;6.692;2022-11-15T07:10:46;37.83;;;21.52;;
53751;SDS011;41095;53.090;6.692;2022-11-15T07:13:11;31.05;;;20.42;;
53751;SDS011;41095;53.090;6.692;2022-11-15T07:15:37;29.38;;;19.80;;
53751;SDS011;41095;53.090;6.692;2022-11-15T07:18:03;33.53;;;20.05;;
53751;SDS011;41095;53.090;6.692;2022-11-15T07:20:29;34.03;;;20.10;;
53751;SDS011;41095;53.090;6.692;2022-11-15T07:23:01;35.10;;;20.25;;
53751;SDS011;41095;53.090;6.692;2022-11-15T07:25:28;32.50;;;20.85;;
53751;SDS011;41095;53.090;6.692;2022-11-15T07:27:57;34.83;;;19.70;;
53751;SDS011;41095;53.090;6.692;2022-11-15T07:30:24;30.38;;;18.98;;
53751;SDS011;41095;53.090;6.692;2022-11-15T07:32:57;31.95;;;19.80;;
53751;SDS011;41095;53.090;6.692;2022-11-15T07:35:24;36.28;;;18.80;;
53751;SDS011;41095;53.090;6.692;2022-11-15T07:37:58;34.10;;;18.17;;
53751;SDS011;41095;53.090;6.692;2022-11-15T07:40:25;30.02;;;17.88;;
53751;SDS011;41095;53.090;6.692;2022-11-15T07:42:58;36.42;;;19.48;;
53751;SDS011;41095;53.090;6.692;2022-11-15T07:45:24;30.17;;;15.90;;
53751;SDS011;41095;53.090;6.692;2022-11-15T07:47:51;28.70;;;18.25;;
53751;SDS011;41095;53.090;6.692;2022-11-15T07:50:17;31.25;;;18.17;;
53751;SDS011;41095;53.090;6.692;2022-11-15T07:52:44;29.13;;;19.17;;
53751;SDS011;41095;53.090;6.692;2022-11-15T07:55:10;27.27;;;17.38;;
53751;SDS011;41095;53.090;6.692;2022-11-15T07:57:36;26.13;;;16.73;;
53751;SDS011;41095;53.090;6.692;2022-11-15T08:00:03;24.85;;;15.93;;
53751;SDS011;41095;53.090;6.692;2022-11-15T08:02:30;21.30;;;14.23;;
53751;SDS011;41095;53.090;6.692;2022-11-15T08:04:55;24.85;;;15.18;;
53751;SDS011;41095;53.090;6.692;2022-11-15T08:07:21;22.50;;;15.45;;
53751;SDS011;41095;53.090;6.692;2022-11-15T08:09:47;27.10;;;17.13;;
53751;SDS011;41095;53.090;6.692;2022-11-15T08:12:13;22.70;;;14.55;;
53751;SDS011;41095;53.090;6.692;2022-11-15T08:14:39;21.83;;;15.02;;
53751;SDS011;41095;53.090;6.692;2022-11-15T08:17:05;19.98;;;15.45;;
53751;SDS011;41095;53.090;6.692;2022-11-15T08:19:30;21.85;;;15.48;;
53751;SDS011;41095;53.090;6.692;2022-11-15T08:21:56;23.92;;;13.85;;
53751;SDS011;41095;53.090;6.692;2022-11-15T08:24:22;24.55;;;15.73;;
53751;SDS011;41095;53.090;6.692;2022-11-15T08:26:48;22.50;;;14.38;;
53751;SDS011;41095;53.090;6.692;2022-11-15T08:29:13;21.83;;;13.95;;
53751;SDS011;41095;53.090;6.692;2022-11-15T08:31:39;21.50;;;15.30;;
53751;SDS011;41095;53.090;6.692;2022-11-15T08:34:05;22.63;;;14.48;;
53751;SDS011;41095;53.090;6.692;2022-11-15T08:36:31;18.55;;;13.32;;
53751;SDS011;41095;53.090;6.692;2022-11-15T08:38:57;20.25;;;14.85;;
53751;SDS011;41095;53.090;6.692;2022-11-15T08:41:37;22.65;;;14.32;;
53751;SDS011;41095;53.090;6.692;2022-11-15T08:44:02;21.80;;;14.00;;
53751;SDS011;41095;53.090;6.692;2022-11-15T08:46:28;19.77;;;13.55;;
53751;SDS011;41095;53.090;6.692;2022-11-15T08:48:54;19.33;;;14.48;;
53751;SDS011;41095;53.090;6.692;2022-11-15T08:51:19;19.02;;;13.90;;
53751;SDS011;41095;53.090;6.692;2022-11-15T08:53:45;19.77;;;13.65;;
53751;SDS011;41095;53.090;6.692;2022-11-15T08:56:12;18.00;;;12.65;;
53751;SDS011;41095;53.090;6.692;2022-11-15T08:58:39;20.48;;;13.98;;
53751;SDS011;41095;53.090;6.692;2022-11-15T09:01:05;21.95;;;14.48;;
53751;SDS011;41095;53.090;6.692;2022-11-15T09:03:31;20.05;;;13.00;;
53751;SDS011;41095;53.090;6.692;2022-11-15T09:05:57;16.77;;;13.52;;
53751;SDS011;41095;53.090;6.692;2022-11-15T09:08:25;19.67;;;13.63;;
53751;SDS011;41095;53.090;6.692;2022-11-15T09:10:54;19.50;;;12.82;;
53751;SDS011;41095;53.090;6.692;2022-11-15T09:13:19;21.90;;;13.13;;
53751;SDS011;41095;53.090;6.692;2022-11-15T09:15:45;15.40;;;11.15;;
53751;SDS011;41095;53.090;6.692;2022-11-15T09:18:11;19.20;;;12.88;;
53751;SDS011;41095;53.090;6.692;2022-11-15T09:20:37;16.60;;;12.25;;
53751;SDS011;41095;53.090;6.692;2022-11-15T09:23:03;22.63;;;13.75;;
53751;SDS011;41095;53.090;6.692;2022-11-15T09:25:30;22.60;;;12.65;;
53751;SDS011;41095;53.090;6.692;2022-11-15T09:27:56;22.25;;;13.13;;
53751;SDS011;41095;53.090;6.692;2022-11-15T09:30:22;21.48;;;14.05;;
53751;SDS011;41095;53.090;6.692;2022-11-15T09:32:48;19.52;;;12.68;;
53751;SDS011;41095;53.090;6.692;2022-11-15T09:35:14;18.95;;;12.60;;
53751;SDS011;41095;53.090;6.692;2022-11-15T09:37:40;19.00;;;12.18;;
53751;SDS011;41095;53.090;6.692;2022-11-15T09:40:08;20.27;;;13.90;;
53751;SDS011;41095;53.090;6.692;2022-11-15T09:43:39;17.40;;;12.73;;
53751;SDS011;41095;53.090;6.692;2022-11-15T09:50:54;17.70;;;11.48;;
53751;SDS011;41095;53.090;6.692;2022-11-15T09:53:27;17.83;;;12.45;;
53751;SDS011;41095;53.090;6.692;2022-11-15T09:58:33;20.67;;;11.48;;
53751;SDS011;41095;53.090;6.692;2022-11-15T10:01:08;14.60;;;10.95;;
53751;SDS011;41095;53.090;6.692;2022-11-15T10:03:43;17.15;;;10.35;;
53751;SDS011;41095;53.090;6.692;2022-11-15T10:06:16;17.77;;;11.05;;
53751;SDS011;41095;53.090;6.692;2022-11-15T10:11:24;14.80;;;10.57;;
53751;SDS011;41095;53.090;6.692;2022-11-15T10:13:53;19.23;;;11.27;;
53751;SDS011;41095;53.090;6.692;2022-11-15T10:19:19;16.08;;;11.43;;
53751;SDS011;41095;53.090;6.692;2022-11-15T10:21:54;16.83;;;10.70;;
53751;SDS011;41095;53.090;6.692;2022-11-15T10:24:25;15.68;;;10.18;;
53751;SDS011;41095;53.090;6.692;2022-11-15T10:26:56;14.32;;;10.73;;
53751;SDS011;41095;53.090;6.692;2022-11-15T10:29:22;14.35;;;9.50;;
53751;SDS011;41095;53.090;6.692;2022-11-15T10:31:49;14.82;;;10.60;;
53751;SDS011;41095;53.090;6.692;2022-11-15T10:34:24;12.68;;;8.98;;
53751;SDS011;41095;53.090;6.692;2022-11-15T10:36:55;12.30;;;8.82;;
53751;SDS011;41095;53.090;6.692;2022-11-15T10:39:23;17.98;;;9.45;;
53751;SDS011;41095;53.090;6.692;2022-11-15T10:41:49;18.17;;;11.25;;
53751;SDS011;41095;53.090;6.692;2022-11-15T10:44:22;13.30;;;9.30;;
53751;SDS011;41095;53.090;6.692;2022-11-15T10:49:33;13.63;;;10.05;;
53751;SDS011;41095;53.090;6.692;2022-11-15T10:54:45;10.80;;;9.35;;
53751;SDS011;41095;53.090;6.692;2022-11-15T10:57:37;12.90;;;9.88;;
53751;SDS011;41095;53.090;6.692;2022-11-15T11:00:26;14.60;;;10.75;;
53751;SDS011;41095;53.090;6.692;2022-11-15T11:02:59;13.80;;;9.32;;
53751;SDS011;41095;53.090;6.692;2022-11-15T11:05:34;17.15;;;10.43;;
53751;SDS011;41095;53.090;6.692;2022-11-15T11:08:19;16.52;;;10.85;;
53751;SDS011;41095;53.090;6.692;2022-11-15T11:10:54;12.43;;;9.32;;
53751;SDS011;41095;53.090;6.692;2022-11-15T11:13:23;14.15;;;8.82;;
53751;SDS011;41095;53.090;6.692;2022-11-15T11:16:09;11.30;;;9.20;;
53751;SDS011;41095;53.090;6.692;2022-11-15T11:21:44;14.27;;;9.77;;
53751;SDS011;41095;53.090;6.692;2022-11-15T11:24:31;12.70;;;9.48;;
53751;SDS011;41095;53.090;6.692;2022-11-15T11:32:38;11.57;;;8.98;;
53751;SDS011;41095;53.090;6.692;2022-11-15T11:35:13;12.85;;;9.65;;
53751;SDS011;41095;53.090;6.692;2022-11-15T11:38:17;16.55;;;8.80;;
53751;SDS011;41095;53.090;6.692;2022-11-15T11:49:15;10.25;;;8.88;;
53751;SDS011;41095;53.090;6.692;2022-11-15T11:51:43;14.05;;;9.32;;
53751;SDS011;41095;53.090;6.692;2022-11-15T11:54:26;10.13;;;7.57;;
53751;SDS011;41095;53.090;6.692;2022-11-15T11:57:04;12.48;;;7.97;;
53751;SDS011;41095;53.090;6.692;2022-11-15T11:59:41;9.20;;;6.35;;
53751;SDS011;41095;53.090;6.692;2022-11-15T12:02:15;7.97;;;6.20;;
53751;SDS011;41095;53.090;6.692;2022-11-15T12:04:51;7.93;;;6.70;;
53751;SDS011;41095;53.090;6.692;2022-11-15T12:07:25;5.95;;;5.43;;
53751;SDS011;41095;53.090;6.692;2022-11-15T12:09:59;8.02;;;5.35;;
53751;SDS011;41095;53.090;6.692;2022-11-15T12:15:10;6.00;;;4.93;;
53751;SDS011;41095;53.090;6.692;2022-11-15T12:17:39;8.90;;;6.43;;
53751;SDS011;41095;53.090;6.692;2022-11-15T12:20:17;6.43;;;5.03;;
53751;SDS011;41095;53.090;6.692;2022-11-15T12:22:53;6.50;;;5.32;;
53751;SDS011;41095;53.090;6.692;2022-11-15T12:25:27;6.35;;;4.82;;
53751;SDS011;41095;53.090;6.692;2022-11-15T12:30:56;7.00;;;4.32;;
53751;SDS011;41095;53.090;6.692;2022-11-15T12:33:45;8.57;;;3.80;;
53751;SDS011;41095;53.090;6.692;2022-11-15T12:41:16;5.25;;;4.68;;
53751;SDS011;41095;53.090;6.692;2022-11-15T12:43:44;5.93;;;4.68;;
53751;SDS011;41095;53.090;6.692;2022-11-15T12:48:56;4.95;;;4.50;;
53751;SDS011;41095;53.090;6.692;2022-11-15T13:17:46;6.07;;;3.28;;
53751;SDS011;41095;53.090;6.692;2022-11-15T13:31:14;4.63;;;3.45;;
53751;SDS011;41095;53.090;6.692;2022-11-15T13:34:16;4.53;;;3.20;;
53751;SDS011;41095;53.090;6.692;2022-11-15T13:36:48;6.38;;;2.75;;
53751;SDS011;41095;53.090;6.692;2022-11-15T13:39:35;4.43;;;3.53;;
53751;SDS011;41095;53.090;6.692;2022-11-15T13:42:02;3.95;;;2.97;;
53751;SDS011;41095;53.090;6.692;2022-11-15T13:44:30;5.88;;;3.17;;
53751;SDS011;41095;53.090;6.692;2022-11-15T13:47:00;4.22;;;2.80;;
53751;SDS011;41095;53.090;6.692;2022-11-15T13:49:31;6.43;;;2.63;;
53751;SDS011;41095;53.090;6.692;2022-11-15T13:51:58;4.97;;;2.75;;
53751;SDS011;41095;53.090;6.692;2022-11-15T13:54:35;6.32;;;2.80;;
53751;SDS011;41095;53.090;6.692;2022-11-15T13:59:48;3.85;;;2.92;;
53751;SDS011;41095;53.090;6.692;2022-11-15T14:02:28;4.72;;;2.70;;
53751;SDS011;41095;53.090;6.692;2022-11-15T14:04:59;3.80;;;2.10;;
53751;SDS011;41095;53.090;6.692;2022-11-15T14:07:39;4.63;;;2.80;;
53751;SDS011;41095;53.090;6.692;2022-11-15T14:10:24;3.00;;;2.70;;
53751;SDS011;41095;53.090;6.692;2022-11-15T14:12:51;3.65;;;2.22;;
53751;SDS011;41095;53.090;6.692;2022-11-15T14:15:25;3.50;;;2.53;;
53751;SDS011;41095;53.090;6.692;2022-11-15T14:17:54;2.85;;;2.30;;
53751;SDS011;41095;53.090;6.692;2022-11-15T14:20:26;4.95;;;2.45;;
53751;SDS011;41095;53.090;6.692;2022-11-15T14:22:56;6.15;;;2.40;;
53751;SDS011;41095;53.090;6.692;2022-11-15T14:25:24;4.85;;;2.50;;
53751;SDS011;41095;53.090;6.692;2022-11-15T14:30:47;3.78;;;2.10;;
53751;SDS011;41095;53.090;6.692;2022-11-15T14:33:36;4.28;;;2.83;;
53751;SDS011;41095;53.090;6.692;2022-11-15T14:38:39;3.00;;;2.20;;
53751;SDS011;41095;53.090;6.692;2022-11-15T14:41:08;3.05;;;2.75;;
53751;SDS011;41095;53.090;6.692;2022-11-15T14:43:46;4.32;;;2.53;;
53751;SDS011;41095;53.090;6.692;2022-11-15T14:46:12;3.72;;;2.70;;
53751;SDS011;41095;53.090;6.692;2022-11-15T14:48:37;2.63;;;2.42;;
53751;SDS011;41095;53.090;6.692;2022-11-15T14:51:03;4.10;;;2.17;;
53751;SDS011;41095;53.090;6.692;2022-11-15T14:53:36;4.93;;;2.67;;
53751;SDS011;41095;53.090;6.692;2022-11-15T14:56:02;4.50;;;2.88;;
53751;SDS011;41095;53.090;6.692;2022-11-15T14:58:28;3.92;;;3.08;;
53751;SDS011;41095;53.090;6.692;2022-11-15T15:00:53;3.13;;;2.88;;
53751;SDS011;41095;53.090;6.692;2022-11-15T15:03:19;4.22;;;3.15;;
53751;SDS011;41095;53.090;6.692;2022-11-15T15:05:45;3.88;;;3.10;;
53751;SDS011;41095;53.090;6.692;2022-11-15T15:08:11;3.15;;;2.85;;
53751;SDS011;41095;53.090;6.692;2022-11-15T15:10:40;3.67;;;2.90;;
53751;SDS011;41095;53.090;6.692;2022-11-15T15:13:18;6.28;;;2.70;;
53751;SDS011;41095;53.090;6.692;2022-11-15T15:15:46;5.47;;;3.13;;
53751;SDS011;41095;53.090;6.692;2022-11-15T15:18:13;3.10;;;2.80;;
53751;SDS011;41095;53.090;6.692;2022-11-15T15:20:41;3.65;;;3.30;;
53751;SDS011;41095;53.090;6.692;2022-11-15T15:23:17;3.85;;;3.15;;
53751;SDS011;41095;53.090;6.692;2022-11-15T15:25:45;5.15;;;3.20;;
53751;SDS011;41095;53.090;6.692;2022-11-15T15:28:13;3.55;;;2.92;;
53751;SDS011;41095;53.090;6.692;2022-11-15T15:30:39;3.38;;;2.88;;
53751;SDS011;41095;53.090;6.692;2022-11-15T15:33:05;4.13;;;3.33;;
53751;SDS011;41095;53.090;6.692;2022-11-15T15:35:32;5.20;;;3.45;;
53751;SDS011;41095;53.090;6.692;2022-11-15T15:37:59;3.30;;;3.00;;
53751;SDS011;41095;53.090;6.692;2022-11-15T15:40:25;3.70;;;2.90;;
53751;SDS011;41095;53.090;6.692;2022-11-15T15:42:53;6.53;;;2.90;;
53751;SDS011;41095;53.090;6.692;2022-11-15T15:45:19;5.75;;;3.60;;
53751;SDS011;41095;53.090;6.692;2022-11-15T15:47:45;5.53;;;3.47;;
53751;SDS011;41095;53.090;6.692;2022-11-15T15:50:21;5.47;;;3.42;;
53751;SDS011;41095;53.090;6.692;2022-11-15T15:52:52;4.93;;;3.70;;
53751;SDS011;41095;53.090;6.692;2022-11-15T15:55:19;7.38;;;3.92;;
53751;SDS011;41095;53.090;6.692;2022-11-15T15:57:45;4.13;;;3.20;;
53751;SDS011;41095;53.090;6.692;2022-11-15T16:00:11;4.95;;;3.78;;
53751;SDS011;41095;53.090;6.692;2022-11-15T16:02:37;4.47;;;3.83;;
53751;SDS011;41095;53.090;6.692;2022-11-15T16:05:04;4.65;;;3.78;;
53751;SDS011;41095;53.090;6.692;2022-11-15T16:07:30;5.30;;;4.22;;
53751;SDS011;41095;53.090;6.692;2022-11-15T16:09:56;4.88;;;4.22;;
53751;SDS011;41095;53.090;6.692;2022-11-15T16:12:25;5.15;;;4.32;;
53751;SDS011;41095;53.090;6.692;2022-11-15T16:14:55;7.53;;;4.53;;
53751;SDS011;41095;53.090;6.692;2022-11-15T16:17:21;3.90;;;3.60;;
53751;SDS011;41095;53.090;6.692;2022-11-15T16:19:50;7.22;;;4.47;;
53751;SDS011;41095;53.090;6.692;2022-11-15T16:22:16;5.72;;;4.22;;
53751;SDS011;41095;53.090;6.692;2022-11-15T16:24:41;4.32;;;3.92;;
53751;SDS011;41095;53.090;6.692;2022-11-15T16:27:14;5.05;;;3.38;;
53751;SDS011;41095;53.090;6.692;2022-11-15T16:32:06;4.68;;;4.25;;
53751;SDS011;41095;53.090;6.692;2022-11-15T16:34:32;6.15;;;4.50;;
53751;SDS011;41095;53.090;6.692;2022-11-15T16:36:57;4.43;;;4.03;;
53751;SDS011;41095;53.090;6.692;2022-11-15T16:39:23;5.03;;;4.55;;
53751;SDS011;41095;53.090;6.692;2022-11-15T16:41:49;4.70;;;4.20;;
53751;SDS011;41095;53.090;6.692;2022-11-15T16:44:14;3.90;;;3.60;;
53751;SDS011;41095;53.090;6.692;2022-11-15T16:46:40;4.97;;;4.03;;
53751;SDS011;41095;53.090;6.692;2022-11-15T16:49:12;4.97;;;4.03;;
53751;SDS011;41095;53.090;6.692;2022-11-15T16:51:39;6.05;;;4.10;;
53751;SDS011;41095;53.090;6.692;2022-11-15T16:54:06;4.50;;;4.03;;
53751;SDS011;41095;53.090;6.692;2022-11-15T16:56:32;3.85;;;3.13;;
53751;SDS011;41095;53.090;6.692;2022-11-15T16:58:59;5.15;;;3.60;;